Terminal Aerodrome Forecast
Issued by NWS Pocatello, ID

Home | Current Version | Previous Version | Text Only | Print | Product List | Glossary On
Versions: 1 2 3 4 5 6 7 8 9 10 11 12 13 14 15 16 17 18 19 20 21 22
383
FTUS45 KPIH 161957 AAB
TAFBYI
TAF AMD
KBYI 161957Z 1620/1718 06008KT P6SM SCT015
     FM170200 VRB04KT P6SM VCFG OVC008
     FM171200 07006KT 2SM BR OVC004=

USA.gov is the U.S. government's official web portal to all federal, state and local government web resources and services.